Fiatt, Illinois
Current Conditions -  °F | °C
As of 12:15 PM on Friday 19 Dec 2014 (Local Time) from KMQB Reporting Station
Clear Clear  
Wind Chill: 26°   Ceiling: Unl
Heat Index: 32°   Visibility: 7mi
Dew Point: 24°   Wind: 6mph
Humidity: 74%   Direction: 90°E
Pressure: 30.31"   Gusts: NA
Location:  40.56°N, 90.18°W
Report Text: KMQB 191815Z AUTO 09005KT 7SM CLR 00/M04 A3031 RMK AO2 T10021044
Loading
Personal Weather Stations






























Interactive Weather Map New forecast layout! Learn more

10-Day Weather Forecast

Advertisements
Track Severe Weather on mobile